Flight Track Log - Related Links

Times and Time Zones

All times are in EDT time to prevent confusion due to time zone crossing. See the N100LS flight status page for this flight to view local times or setup timezone preferences in your user account.

Time Position Orientation Groundspeed Altitude Reporting Facility
EDT Latitude Longitude Course Direction KTS MPH feet Rate Location/Type
Sat 09:00:16 AM 35.8592 -83.5597 200° South 196 226 3,800  Level Atlanta Center
Sat 09:01:16 AM 35.8133 -83.5803 200° South 189 217 4,500 800 Climbing Atlanta Center
Sat 09:02:16 AM 35.7653 -83.5858 185° South 176 203 5,400 850 Climbing Atlanta Center
Sat 09:03:16 AM 35.7194 -83.5808 175° South 163 188 6,200 800 Climbing Atlanta Center
Sat 09:04:16 AM 35.6714 -83.5786 178° South 163 188 7,000 800 Climbing Atlanta Center
Sat 09:05:16 AM 35.6214 -83.5839 185° South 169 194 7,800 750 Climbing Atlanta Center
Sat 09:06:16 AM 35.5736 -83.5919 188° South 180 207 8,500 700 Climbing Atlanta Center
Sat 09:07:16 AM 35.5256 -83.5997 188° South 180 207 9,200 800 Climbing Atlanta Center
Sat 09:08:16 AM 35.4775 -83.5975 178° South 180 207 10,100 850 Climbing Atlanta Center
Sat 09:09:16 AM 35.4317 -83.5928 175° South 175 201 10,900 750 Climbing Atlanta Center
Sat 09:10:16 AM 35.3836 -83.5828 170° South 180 207 11,600 650 Climbing Atlanta Center
Sat 09:11:16 AM 35.3356 -83.5753 173° South 180 207 12,200 600 Climbing Atlanta Center
Sat 09:12:16 AM 35.2856 -83.5656 171° South 180 207 12,800 600 Climbing Atlanta Center
Sat 09:13:16 AM 35.2353 -83.5581 173° South 180 207 13,400 550 Climbing Atlanta Center
Sat 09:14:16 AM 35.1872 -83.5458 168° South 186 214 13,900 600 Climbing Atlanta Center
Sat 09:15:16 AM 35.1289 -83.5383 174° South 191 220 14,600 600 Climbing Atlanta Center
Sat 09:16:16 AM 35.0767 -83.5286 171° South 191 220 15,100 550 Climbing Atlanta Center
Sat 09:17:16 AM 35.0225 -83.5214 174° South 196 226 15,700 600 Climbing Atlanta Center
Sat 09:18:16 AM 34.9764 -83.5039 163° South 196 226 16,300 500 Climbing Atlanta Center
Sat 09:19:16 AM 34.9261 -83.4864 164° South 196 226 16,700 500 Climbing Atlanta Center
Sat 09:20:16 AM 34.8761 -83.4692 164° South 196 226 17,300 550 Climbing Atlanta Center
Sat 09:21:16 AM 34.8239 -83.4542 167° South 196 226 17,800 500 Climbing Atlanta Center
Sat 09:22:16 AM 34.7736 -83.4369 164° South 191 220 18,300 550 Climbing Atlanta Center
Sat 09:23:16 AM 34.7194 -83.4247 169° South 191 220 18,900 350 Climbing Atlanta Center
Sat 09:24:16 AM 34.6692 -83.4050 162° South 191 220 19,000 50 Climbing Atlanta Center
Sat 09:25:16 AM 34.6189 -83.3900 166° South 196 226 19,000  Level Atlanta Center
Sat 09:26:16 AM 34.5625 -83.3703 164° South 202 232 19,000  Level Atlanta Center
Sat 09:27:16 AM 34.5103 -83.3556 167° South 202 232 19,000  Level Atlanta Center
Sat 09:28:16 AM 34.4539 -83.3358 164° South 202 232 19,000  Level Atlanta Center
Sat 09:29:16 AM 34.3953 -83.3189 167° South 195 224 19,000  Level Atlanta Center
Sat 09:30:16 AM 34.3389 -83.3042 168° South 203 234 19,000  Level Atlanta Center
Sat 09:31:16 AM 34.2825 -83.2897 168° South 209 241 19,000  Level Atlanta Center
Sat 09:32:16 AM 34.2261 -83.2725 166° South 209 241 19,000  Level Atlanta Center
Sat 09:33:16 AM 34.1736 -83.2581 167° South 204 235 19,000  Level Atlanta Center
Sat 09:34:16 AM 34.1172 -83.2408 166° South 204 235 19,000  Level Atlanta Center
Sat 09:35:16 AM 34.0628 -83.2264 168° South 204 235 19,000  Level Atlanta Center
Sat 09:36:16 AM 34.0086 -83.2092 165° South 204 235 19,000  Level Atlanta Center
Sat 09:37:16 AM 33.9583 -83.1947 167° South 204 235 19,000  Level Atlanta Center
Sat 09:38:16 AM 33.9039 -83.1803 168° South 204 235 19,000  Level Atlanta Center
Sat 09:39:16 AM 33.8494 -83.1633 166° South 204 235 19,000  Level Atlanta Center
Sat 09:40:16 AM 33.7931 -83.1489 168° South 205 236 19,000  Level Atlanta Center
Sat 09:41:16 AM 33.7408 -83.1319 165° South 199 229 19,000  Level Atlanta Center
Sat 09:42:16 AM 33.6822 -83.1153 167° South 205 236 19,000  Level Atlanta Center
Sat 09:43:16 AM 33.6217 -83.0983 167° South 205 236 19,000  Level Atlanta Center
Sat 09:44:16 AM 33.5631 -83.0839 168° South 205 236 19,000  Level Atlanta Center
Sat 09:45:16 AM 33.5108 -83.0672 165° South 205 236 19,000  Level Atlanta Center
Sat 09:46:16 AM 33.4542 -83.0528 168° South 205 236 19,000  Level Atlanta Center
Sat 09:47:16 AM 33.3978 -83.0361 166° South 205 236 19,000  Level Atlanta Center
Sat 09:48:16 AM 33.3411 -83.0194 166° South 205 236 19,000  Level Atlanta Center
Sat 09:49:16 AM 33.2869 -83.0025 165° South 205 236 19,000  Level Atlanta Center
Sat 09:50:16 AM 33.2261 -82.9908 171° South 211 243 19,000  Level Atlanta Center
Sat 09:51:16 AM 33.1739 -82.9717 163° South 211 243 19,000  Level Atlanta Center
Sat 09:52:16 AM 33.1217 -82.9600 169° South 211 243 19,000  Level Atlanta Center
Sat 09:53:16 AM 33.0672 -82.9433 166° South 206 237 19,000  Level Atlanta Center
Sat 09:54:16 AM 33.0064 -82.9242 165° South 206 237 19,000  Level Atlanta Center
Sat 09:55:16 AM 32.9519 -82.9050 164° South 201 231 19,000  Level Atlanta Center
Sat 09:56:17 AM 32.8933 -82.8886 167° South 201 231 19,000  Level Atlanta Center
Sat 09:57:16 AM 32.8369 -82.8744 168° South 201 231 19,000  Level Atlanta Center
Sat 09:59:09 AM 32.7386 -82.8456 166° South 201 231 19,000  Level Jacksonville Center
Sat 10:00:09 AM 32.6842 -82.8308 167° South 201 231 19,000  Level Jacksonville Center
Sat 10:01:09 AM 32.6278 -82.8161 168° South 201 231 19,000  Level Jacksonville Center
Sat 10:02:09 AM 32.5736 -82.8014 167° South 201 231 19,000  Level Jacksonville Center
Sat 10:03:09 AM 32.5194 -82.7867 167° South 201 231 19,000  Level Jacksonville Center
Sat 10:04:09 AM 32.4631 -82.7669 164° South 201 231 19,000  Level Jacksonville Center
Sat 10:05:09 AM 32.4086 -82.7547 169° South 201 231 19,000  Level Jacksonville Center
Sat 10:06:09 AM 32.3522 -82.7353 164° South 201 231 19,000  Level Jacksonville Center
Sat 10:07:09 AM 32.2958 -82.7231 170° South 201 231 19,000  Level Jacksonville Center
Sat 10:08:09 AM 32.2394 -82.7058 166° South 201 231 19,000  Level Jacksonville Center
Sat 10:09:09 AM 32.1831 -82.6914 168° South 201 231 19,000  Level Jacksonville Center
Sat 10:10:09 AM 32.1289 -82.6767 167° South 201 231 19,000  Level Jacksonville Center
Sat 10:11:09 AM 32.0744 -82.6597 165° South 201 231 19,000  Level Jacksonville Center
Sat 10:12:09 AM 32.0181 -82.6428 166° South 201 231 19,000  Level Jacksonville Center
Sat 10:13:09 AM 31.9636 -82.6306 169° South 201 231 19,000  Level Jacksonville Center
Sat 10:14:09 AM 31.9072 -82.6136 166° South 201 231 19,000  Level Jacksonville Center
Sat 10:15:09 AM 31.8508 -82.5992 168° South 201 231 19,000  Level Jacksonville Center
Sat 10:16:09 AM 31.7986 -82.5847 167° South 201 231 19,000  Level Jacksonville Center
Sat 10:17:09 AM 31.7422 -82.5678 166° South 201 231 19,000  Level Jacksonville Center
Sat 10:18:09 AM 31.6881 -82.5533 167° South 201 231 19,000  Level Jacksonville Center
Sat 10:19:09 AM 31.6336 -82.5364 165° South 201 231 19,000  Level Jacksonville Center
Sat 10:20:09 AM 31.5750 -82.5219 168° South 201 231 19,000  Level Jacksonville Center
Sat 10:21:09 AM 31.5186 -82.5100 170° South 201 231 19,000  Level Jacksonville Center
Sat 10:22:09 AM 31.4644 -82.5150 185° South 201 231 19,000  Level Jacksonville Center
Sat 10:23:09 AM 31.4039 -82.5178 182° South 201 231 19,000  Level Jacksonville Center
Sat 10:24:09 AM 31.3539 -82.5228 185° South 201 231 19,000  Level Jacksonville Center
Sat 10:25:09 AM 31.3036 -82.5253 182° South 195 224 19,000  Level Jacksonville Center
Sat 10:26:09 AM 31.2494 -82.5256 180° South 195 224 19,000  Level Jacksonville Center
Sat 10:27:09 AM 31.1972 -82.5258 180° South 195 224 19,000  Level Jacksonville Center
Sat 10:28:09 AM 31.1450 -82.5283 182° South 195 224 19,000  Level Jacksonville Center
Sat 10:29:09 AM 31.0908 -82.5336 185° South 195 224 19,000  Level Jacksonville Center
Sat 10:30:09 AM 31.0428 -82.5336 180° South 195 224 19,000  Level Jacksonville Center
Sat 10:31:09 AM 30.9906 -82.5364 183° South 195 224 19,000  Level Jacksonville Center
Sat 10:32:09 AM 30.9342 -82.5414 184° South 200 230 19,000  Level Jacksonville Center
Sat 10:33:09 AM 30.8842 -82.5392 178° South 194 223 19,000  Level Jacksonville Center
Sat 10:34:09 AM 30.8297 -82.5442 185° South 194 223 19,000  Level Jacksonville Center
Sat 10:35:09 AM 30.7775 -82.5469 183° South 194 223 19,000  Level Jacksonville Center
Sat 10:36:09 AM 30.7253 -82.5469 180° South 194 223 19,000  Level Jacksonville Center
Sat 10:37:09 AM 30.6733 -82.5497 183° South 194 223 19,000  Level Jacksonville Center
Sat 10:38:09 AM 30.6231 -82.5522 182° South 194 223 19,000  Level Jacksonville Center
Sat 10:39:09 AM 30.5750 -82.5547 183° South 194 223 19,000  Level Jacksonville Center
Sat 10:40:09 AM 30.5269 -82.5550 180° South 194 223 19,000  Level Jacksonville Center
Sat 10:41:09 AM 30.4769 -82.5575 182° South 184 212 19,000  Level Jacksonville Center
Sat 10:42:09 AM 30.4311 -82.5600 183° South 179 206 19,000  Level Jacksonville Center
Sat 10:43:09 AM 30.3808 -82.5628 183° South 179 206 19,000  Level Jacksonville Center
Sat 10:44:09 AM 30.3350 -82.5581 175° South 179 206 19,000  Level Jacksonville Center
Sat 10:45:09 AM 30.2847 -82.5486 171° South 179 206 19,000  Level Jacksonville Center
Sat 10:46:09 AM 30.2367 -82.5414 173° South 179 206 19,000  Level Jacksonville Center
Sat 10:47:09 AM 30.1889 -82.5297 168° South 179 206 19,000  Level Jacksonville Center
Sat 10:48:09 AM 30.1386 -82.5228 173° South 179 206 19,000  Level Jacksonville Center
Sat 10:49:09 AM 30.0906 -82.5108 168° South 179 206 19,000  Level Jacksonville Center
Sat 10:50:09 AM 30.0406 -82.5014 171° South 179 206 19,000  Level Jacksonville Center
Sat 10:51:09 AM 29.9839 -82.4897 170° South 179 206 19,000  Level Jacksonville Center
Sat 10:52:09 AM 29.9464 -82.4803 168° South 179 206 19,000  Level Jacksonville Center
Sat 10:53:09 AM 29.8922 -82.4708 171° South 179 206 19,000  Level Jacksonville Center
Sat 10:54:09 AM 29.8419 -82.4617 171° South 179 206 19,000  Level Jacksonville Center
Sat 10:55:09 AM 29.7919 -82.4547 173° South 179 206 19,000  Level Jacksonville Center
Sat 10:56:09 AM 29.7417 -82.4428 168° South 179 206 19,000  Level Jacksonville Center
Sat 10:57:09 AM 29.6936 -82.4336 171° South 179 206 19,000 -450 Level Jacksonville Center
Sat 10:58:09 AM 29.6394 -82.4242 171° South 185 213 18,100 -1,000 Descending Jacksonville Center
Sat 10:59:09 AM 29.5808 -82.4125 170° South 198 228 17,000 -1,050 Descending Jacksonville Center
Sat 11:00:09 AM 29.5222 -82.4033 172° South 211 243 16,000 -1,139 Descending Jacksonville Center
Sat 11:00:28 AM 29.4953 -82.4011 176° South 212 244 15,500 -1,000 Descending Jacksonville Center
Sat 11:01:09 AM 29.4639 -82.3942 169° South 211 243 15,000 -896 Descending Jacksonville Center
Sat 11:01:35 AM 29.4347 -82.3894 172° South 205 236 14,500 -900 Descending Jacksonville Center
Sat 11:02:09 AM 29.4075 -82.3825 167° South 216 249 14,100 -896 Descending Jacksonville Center
Sat 11:02:42 AM 29.3697 -82.3778 174° South 203 234 13,500 -900 Descending Jacksonville Center
Sat 11:03:09 AM 29.3511 -82.3731 168° South 216 249 13,200 -885 Descending Jacksonville Center
Sat 11:03:43 AM 29.3133 -82.3686 174° South 202 232 12,600 -900 Descending Jacksonville Center
Sat 11:04:09 AM 29.2967 -82.3617 160° South 216 249 12,300 -982 Descending Jacksonville Center
Sat 11:04:38 AM 29.2633 -82.3594 177° South 200 230 11,700 -1,000 Descending Jacksonville Center
Sat 11:05:09 AM 29.2425 -82.3522 163° South 211 243 11,300 -885 Descending Jacksonville Center
Sat 11:05:39 AM 29.2069 -82.3478 174° South 205 236 10,800 -800 Descending Jacksonville Center
Sat 11:06:09 AM 29.1861 -82.3431 169° South 211 243 10,500 -885 Descending Jacksonville Center
Sat 11:06:40 AM 29.1525 -82.3386 173° South 203 234 9,900 -900 Descending Jacksonville Center
Sat 11:07:09 AM 29.1297 -82.3364 175° South 211 243 9,600 -787 Descending Jacksonville Center
Sat 11:07:41 AM 29.0983 -82.3342 176° South 193 222 9,100 -800 Descending Jacksonville Center
Sat 11:08:09 AM 29.0775 -82.3294 169° South 206 237 8,800 -885 Descending Jacksonville Center
Sat 11:08:42 AM 29.0397 -82.3272 177° South 191 220 8,200 -800 Descending Jacksonville Center
Sat 11:09:09 AM 29.0253 -82.3225 164° South 200 230 8,000 -787 Descending Jacksonville Center
Sat 11:09:43 AM 28.9875 -82.3253 184° South 187 215 7,400 -800 Descending Jacksonville Center
Sat 11:10:09 AM 28.9731 -82.3206 164° South 195 224 7,200 -448 Descending Jacksonville Center
Sat 11:10:50 AM 28.9333 -82.3183 177° South 184 212 6,900 -176 Descending Jacksonville Center
Sat 11:11:51 AM 28.8853 -82.3117 173° South 164 189 6,900  Level Jacksonville Center
Sat 11:12:52 AM 28.8394 -82.3047 172° South 158 182 6,900  Level Jacksonville Center
Sat 11:15:17 AM 28.7333 -82.3000 178° South 163 188 6,900  Level Tampa TRACON
Sat 11:16:17 AM 28.6833 -82.2833 164° South 162 186 6,900  Level Tampa TRACON
Sat 11:17:17 AM 28.6500 -82.2833 180° South 162 186 6,900 -250 Level Tampa TRACON
Sat 11:18:17 AM 28.6167 -82.3167 221° Southwest 164 189 6,400 -500 Descending Tampa TRACON
Sat 11:19:17 AM 28.6000 -82.3667 249° West 176 203 5,900 -200 Descending Tampa TRACON
Sat 11:20:17 AM 28.6000 -82.4167 270° West 159 183 6,000  Climbing Tampa TRACON
Sat 11:21:23 AM 28.5833 -82.4667 249° West 153 176 5,900 -238 Descending Tampa TRACON
Sat 11:22:23 AM 28.5667 -82.5167 249° West 160 184 5,500 -678 Descending Tampa TRACON
Sat 11:23:18 AM 28.5333 -82.5500 221° Southwest 183 211 4,600 -789 Descending Tampa TRACON
Sat 11:24:17 AM 28.5000 -82.6000 233° Southwest 188 216 4,000 -336 Descending Tampa TRACON
Sat 11:25:23 AM 28.4833 -82.6500 249° West 157 181 3,900 -47 Descending Tampa TRACON
Sat 11:26:24 AM 28.4500 -82.6833 221° Southwest 157 181 3,900  Level Tampa TRACON
Sat 11:27:18 AM 28.4167 -82.7167 221° Southwest 158 182 3,900  Level Tampa TRACON
Sat 11:28:18 AM 28.3833 -82.7500 221° Southwest 162 186 3,900  Level Tampa TRACON
Sat 11:29:12 AM 28.3500 -82.7833 221° Southwest 163 188 3,900  Level Tampa TRACON
Sat 11:30:18 AM 28.3167 -82.8167 221° Southwest 167 192 3,900  Level Tampa TRACON
Sat 11:31:18 AM 28.2667 -82.8000 164° South 172 198 3,900  Level Tampa TRACON
Sat 11:32:18 AM 28.2167 -82.8000 180° South 171 197 3,900  Level Tampa TRACON
Sat 11:33:18 AM 28.1667 -82.7833 164° South 170 196 3,900  Level Tampa TRACON
Sat 11:34:12 AM 28.1333 -82.7833 180° South 170 196 3,900  Level Tampa TRACON
Sat 11:35:18 AM 28.0667 -82.7833 180° South 171 197 3,900  Level Tampa TRACON
Sat 11:36:18 AM 28.0333 -82.7833 180° South 169 194 3,900  Level Tampa TRACON
Sat 11:37:18 AM 27.9833 -82.7833 180° South 170 196 3,900  Level Tampa TRACON
Sat 11:38:18 AM 27.9333 -82.7833 180° South 169 194 3,900  Level Tampa TRACON
Sat 11:39:18 AM 27.8833 -82.7833 180° South 166 191 3,900  Level Tampa TRACON
Sat 11:40:18 AM 27.8500 -82.8000 204° Southwest 157 181 3,900 -52 Level Tampa TRACON
Sat 11:41:13 AM 27.8167 -82.8167 204° Southwest 157 181 3,800 -365 Descending Tampa TRACON
Sat 11:42:13 AM 27.7667 -82.8167 180° South 182 209 3,200 -857 Descending Tampa TRACON
Sat 11:43:19 AM 27.7167 -82.7833 149° Southeast 211 243 2,000 -619 Descending Tampa TRACON
Sat 11:44:19 AM 27.7167 -82.7333 90° East 194 223 1,900 -50 Descending Tampa TRACON
Sat 11:45:19 AM 27.7333 -82.6833 69° East 171 197 1,900  Level Tampa TRACON
Sat 11:46:25 AM 27.7667 -82.6500 42° Northeast 141 162 1,900  Level Tampa TRACON

Login

Don't have an account? Register now (free) for customized features, flight alerts, and more!